Time;durP1;ratioP1;P1;durP2;ratioP2;P2;SDS_P1;SDS_P2;PMS_P1;PMS_P2;Temp;Humidity;BMP_temperature;BMP_pressure;BME280_temperature;BME280_humidity;BME280_pressure;Samples;Min_cycle;Max_cycle;Signal;HPM_P1;HPM_P2
2022/01/08 00:01:56;;;;;;;;;2.00;1.00;;;;;5.56;65.21;100685.81;5036709;28;69351;-64
2022/01/08 00:04:21;;;;;;;;;1.50;1.50;;;;;5.53;65.52;100685.19;5036648;28;62978;-64
2022/01/08 00:06:47;;;;;;;;;4.25;2.00;;;;;5.53;65.47;100690.38;5036547;28;70329;-66
2022/01/08 00:09:12;;;;;;;;;1.00;1.00;;;;;5.52;65.33;100699.13;5036286;28;45324;-64
2022/01/08 00:11:41;;;;;;;;;2.25;1.00;;;;;5.52;65.52;100704.34;5036646;28;45291;-64
2022/01/08 00:14:07;;;;;;;;;2.00;0.00;;;;;5.49;65.19;100721.84;5020092;28;45298;-64
2022/01/08 00:16:34;;;;;;;;;2.00;2.00;;;;;5.47;65.34;100718.50;5037172;28;46680;-63
2022/01/08 00:18:59;;;;;;;;;2.00;2.00;;;;;5.42;65.61;100719.75;5037412;28;45379;-64
2022/01/08 00:21:24;;;;;;;;;2.00;1.00;;;;;5.39;65.56;100717.34;5036699;28;64338;-63
2022/01/08 00:23:50;;;;;;;;;2.50;0.00;;;;;5.38;65.67;100720.88;5035128;28;66801;-63
2022/01/08 00:26:15;;;;;;;;;4.00;1.00;;;;;5.37;65.52;100717.44;5037237;28;45439;-64
2022/01/08 00:28:41;;;;;;;;;3.00;3.00;;;;;5.35;65.47;100727.09;5035124;28;68399;-63
2022/01/08 00:31:09;;;;;;;;;2.00;2.00;;;;;5.33;65.67;100732.44;5036336;28;62332;-65
2022/01/08 00:33:35;;;;;;;;;6.25;3.25;;;;;5.34;65.95;100738.47;5035820;28;45316;-64
2022/01/08 00:36:01;;;;;;;;;3.00;3.00;;;;;5.33;66.01;100736.78;5036800;28;46491;-65
2022/01/08 00:38:26;;;;;;;;;4.00;2.00;;;;;5.32;65.98;100738.56;5035981;28;67218;-64
2022/01/08 00:40:51;;;;;;;;;1.00;1.00;;;;;5.31;65.97;100747.31;5036130;28;63986;-65
2022/01/08 00:43:17;;;;;;;;;3.25;2.00;;;;;5.30;66.18;100748.25;5035935;28;69290;-63
2022/01/08 00:45:42;;;;;;;;;2.00;1.00;;;;;5.28;66.17;100738.88;5036544;28;46505;-65
2022/01/08 00:48:08;;;;;;;;;2.50;2.00;;;;;5.28;66.10;100752.72;5051297;28;68157;-64
2022/01/08 00:50:33;;;;;;;;;3.25;1.25;;;;;5.31;66.12;100759.50;5034744;28;64041;-66
2022/01/08 00:52:58;;;;;;;;;2.50;1.25;;;;;5.30;66.48;100766.50;5035233;28;56841;-64
2022/01/08 00:55:24;;;;;;;;;3.00;1.00;;;;;5.28;66.48;100776.19;5051874;28;45477;-65
2022/01/08 00:57:49;;;;;;;;;2.75;1.75;;;;;5.28;66.52;100780.56;5034720;28;66365;-63
2022/01/08 01:00:14;;;;;;;;;1.00;1.00;;;;;5.29;66.32;100783.06;5036413;28;52211;-65
2022/01/08 01:02:40;;;;;;;;;2.00;1.25;;;;;5.30;66.61;100787.34;5035627;28;45348;-66
2022/01/08 01:05:06;;;;;;;;;0.00;0.00;;;;;5.28;66.77;100785.78;5036757;28;45584;-66
2022/01/08 01:07:31;;;;;;;;;4.50;3.00;;;;;5.27;66.56;100790.13;5052151;28;45352;-61
2022/01/08 01:09:56;;;;;;;;;4.00;4.00;;;;;5.27;66.68;100799.72;5051963;28;48631;-66
2022/01/08 01:12:22;;;;;;;;;5.25;4.00;;;;;5.26;66.76;100792.84;5035945;28;59853;-65
2022/01/08 01:14:47;;;;;;;;;6.75;4.00;;;;;5.25;66.68;100802.41;5035235;28;46038;-63
2022/01/08 01:17:13;;;;;;;;;5.75;3.00;;;;;5.26;66.88;100792.84;5036468;28;45438;-66
2022/01/08 01:19:38;;;;;;;;;6.00;5.00;;;;;5.26;67.03;100792.84;5035391;28;45390;-64
2022/01/08 01:22:04;;;;;;;;;4.00;1.75;;;;;5.23;66.80;100791.25;5051267;28;57400;-65
2022/01/08 01:24:31;;;;;;;;;3.00;3.00;;;;;5.24;67.16;100786.91;5036289;28;45470;-64
2022/01/08 01:29:51;;;;;;;;;4.50;2.00;;;;;5.22;67.15;100796.56;5036335;28;45534;-65
2022/01/08 01:48:27;;;;;;;;;3.25;2.50;;;;;5.18;67.28;100796.75;5036124;28;45767;-64
2022/01/08 01:50:53;;;;;;;;;3.25;2.00;;;;;5.17;67.61;100797.69;5035080;28;68714;-64
2022/01/08 01:53:18;;;;;;;;;3.00;1.00;;;;;5.16;67.68;100803.84;5035035;28;45190;-66
2022/01/08 01:55:44;;;;;;;;;3.00;1.75;;;;;5.16;67.80;100802.97;5034908;28;68032;-64
2022/01/08 01:58:09;;;;;;;;;6.00;2.75;;;;;5.16;67.56;100801.22;5034850;28;45301;-65
2022/01/08 02:00:35;;;;;;;;;6.00;3.25;;;;;5.15;67.66;100796.94;5034862;28;45537;-65
2022/01/08 02:03:00;;;;;;;;;6.50;3.00;;;;;5.15;67.56;100801.31;5034828;28;45438;-66
2022/01/08 02:05:26;;;;;;;;;3.00;3.00;;;;;5.15;67.78;100802.16;5034802;28;72460;-64
2022/01/08 02:07:54;;;;;;;;;2.25;2.25;;;;;5.13;67.55;100798.81;5034670;28;45587;-66
2022/01/08 02:10:19;;;;;;;;;3.00;3.00;;;;;5.13;67.97;100806.63;5035967;28;45332;-64
2022/01/08 02:12:45;;;;;;;;;3.25;2.00;;;;;5.12;67.63;100807.56;5033964;28;62169;-65
2022/01/08 02:15:10;;;;;;;;;1.50;1.50;;;;;5.10;67.83;100803.34;5034286;28;46008;-64
2022/01/08 02:17:36;;;;;;;;;3.00;3.00;;;;;5.10;67.95;100799.00;5051231;28;45298;-64
2022/01/08 02:20:01;;;;;;;;;3.00;2.00;;;;;5.09;67.91;100802.53;5034860;28;45322;-66
2022/01/08 02:22:27;;;;;;;;;1.75;1.75;;;;;5.08;67.73;100800.00;5035697;28;45512;-66
2022/01/08 02:24:52;;;;;;;;;5.00;2.25;;;;;5.07;67.84;100799.19;5035497;28;46415;-63
2022/01/08 02:27:18;;;;;;;;;2.50;2.00;;;;;5.08;67.80;100818.25;5033608;28;64567;-66
2022/01/08 02:29:43;;;;;;;;;2.00;2.00;;;;;5.07;67.93;100827.84;5034560;28;45493;-63
2022/01/08 02:32:11;;;;;;;;;3.25;1.50;;;;;5.05;67.64;100814.06;5035729;28;45518;-63
2022/01/08 02:34:37;;;;;;;;;3.50;2.00;;;;;5.03;67.66;100814.13;5036876;28;46656;-63
2022/01/08 02:37:03;;;;;;;;;3.25;2.25;;;;;5.03;67.53;100818.53;5054467;28;45838;-64
2022/01/08 02:39:30;;;;;;;;;8.00;4.00;;;;;5.02;67.69;100806.44;5039180;28;45298;-66
2022/01/08 02:41:58;;;;;;;;;2.25;1.75;;;;;5.01;67.49;100805.63;5038992;28;45610;-64
2022/01/08 02:44:24;;;;;;;;;2.25;1.75;;;;;5.00;67.64;100806.53;5038687;28;45331;-66
2022/01/08 02:46:49;;;;;;;;;3.25;2.00;;;;;4.99;67.64;100807.47;5037678;28;45301;-65
2022/01/08 02:49:15;;;;;;;;;3.75;2.00;;;;;4.98;67.75;100808.41;5037619;28;45549;-66
2022/01/08 02:51:40;;;;;;;;;3.25;2.00;;;;;4.96;67.86;100812.00;5037673;28;45331;-64
2022/01/08 02:54:09;;;;;;;;;1.75;1.75;;;;;4.95;67.59;100811.19;5037715;28;70569;-63
2022/01/08 02:56:41;;;;;;;;;2.00;2.00;;;;;4.94;68.08;100819.94;5037077;28;45811;-65
2022/01/08 02:59:07;;;;;;;;;3.00;1.00;;;;;4.93;67.93;100817.41;5038439;28;45298;-62
2022/01/08 03:01:33;;;;;;;;;2.00;1.00;;;;;4.92;67.72;100820.94;5054100;28;45348;-64
2022/01/08 03:03:58;;;;;;;;;2.00;2.00;;;;;4.90;67.98;100832.28;5037064;28;45450;-65
2022/01/08 03:06:23;;;;;;;;;1.00;1.00;;;;;4.90;68.13;100832.28;5037363;28;71979;-63
2022/01/08 03:08:49;;;;;;;;;3.00;1.25;;;;;4.90;67.89;100839.28;5037099;28;45306;-63
2022/01/08 03:11:15;;;;;;;;;3.75;2.00;;;;;4.89;67.79;100838.41;5038397;28;45586;-64
2022/01/08 03:13:40;;;;;;;;;3.25;2.50;;;;;4.90;67.89;100834.88;5053140;28;60105;-64
2022/01/08 03:16:05;;;;;;;;;3.00;1.75;;;;;4.92;68.01;100841.78;5038176;28;45323;-63
2022/01/08 03:18:31;;;;;;;;;1.25;1.00;;;;;4.90;67.96;100834.88;5037514;28;63907;-65
2022/01/08 03:21:11;;;;;;;;;4.00;1.75;;;;;4.89;67.98;100827.19;5037154;28;68031;-63
2022/01/08 03:23:43;;;;;;;;;4.00;3.00;;;;;4.86;67.98;100825.56;5051673;28;46231;-63
2022/01/08 03:26:08;;;;;;;;;3.00;1.00;;;;;4.83;68.16;100815.34;5020391;28;45945;-64
2022/01/08 03:28:34;;;;;;;;;1.00;1.00;;;;;4.85;68.19;100817.88;5035888;28;65273;-66
2022/01/08 03:30:59;;;;;;;;;2.00;2.00;;;;;4.86;68.33;100816.94;5037678;28;49756;-67
2022/01/08 03:33:24;;;;;;;;;1.00;1.00;;;;;4.84;68.20;100817.03;5037029;28;66657;-63
2022/01/08 03:35:50;;;;;;;;;0.50;0.00;;;;;4.84;68.19;100809.22;5052616;28;66036;-64
2022/01/08 03:38:15;;;;;;;;;2.75;1.00;;;;;4.82;68.16;100811.06;5036872;28;69422;-67
2022/01/08 03:40:40;;;;;;;;;2.50;1.00;;;;;4.80;68.21;100806.91;5035715;28;68379;-63
2022/01/08 03:43:06;;;;;;;;;0.50;0.50;;;;;4.79;68.23;100800.84;5037166;28;62313;-66
2022/01/08 03:45:31;;;;;;;;;2.00;1.00;;;;;4.80;68.20;100810.31;5035355;28;72899;-63
2022/01/08 03:50:40;;;;;;;;;1.00;1.00;;;;;4.78;68.10;100829.59;5050937;28;45320;-63
2022/01/08 03:53:06;;;;;;;;;1.50;1.00;;;;;4.74;68.01;100836.75;5036629;28;73359;-65
2022/01/08 03:55:31;;;;;;;;;1.00;1.00;;;;;4.73;68.12;100833.28;5036435;28;69080;-62
2022/01/08 03:57:57;;;;;;;;;2.50;1.75;;;;;4.72;68.25;100842.03;5036632;28;65999;-64
2022/01/08 04:00:22;;;;;;;;;2.50;1.00;;;;;4.71;68.06;100836.94;5036457;28;69193;-63
2022/01/08 04:02:47;;;;;;;;;1.00;1.00;;;;;4.67;67.96;100836.25;5036736;28;57694;-65
2022/01/08 04:05:13;;;;;;;;;0.75;0.75;;;;;4.66;67.84;100831.16;5037389;28;45371;-67
2022/01/08 04:07:38;;;;;;;;;1.00;1.00;;;;;4.63;67.72;100820.91;5036505;28;45337;-65
2022/01/08 04:10:04;;;;;;;;;0.00;0.00;;;;;4.57;67.86;100812.53;5036670;28;62095;-64
2022/01/08 04:12:52;;;;;;;;;1.00;0.75;;;;;4.54;67.94;100817.94;5037245;28;46341;-64
2022/01/08 04:15:33;;;;;;;;;2.25;2.00;;;;;4.48;67.97;100818.28;5037254;28;45733;-64
2022/01/08 04:17:59;;;;;;;;;4.50;2.00;;;;;4.45;67.88;100834.06;5036183;28;45518;-64
2022/01/08 04:20:24;;;;;;;;;5.50;1.75;;;;;4.43;68.19;100830.72;5036068;28;45526;-64
2022/01/08 04:22:51;;;;;;;;;2.75;1.00;;;;;4.38;67.72;100838.81;5035739;28;46299;-64
2022/01/08 04:25:17;;;;;;;;;1.00;1.00;;;;;4.37;67.72;100839.72;5037002;28;45819;-64
2022/01/08 04:27:43;;;;;;;;;0.50;0.50;;;;;4.34;68.05;100839.03;5036994;28;45383;-64
2022/01/08 04:30:08;;;;;;;;;1.25;1.25;;;;;4.31;67.81;100837.47;5051677;28;68196;-63
2022/01/08 04:32:34;;;;;;;;;4.00;2.50;;;;;4.27;68.20;100839.41;5052274;28;45395;-65
2022/01/08 04:34:59;;;;;;;;;3.75;2.00;;;;;4.27;68.53;100841.19;5034855;28;68822;-62
2022/01/08 04:37:24;;;;;;;;;6.50;3.00;;;;;4.23;67.99;100837.06;5035994;28;68500;-64
2022/01/08 04:39:50;;;;;;;;;5.50;4.00;;;;;4.19;68.00;100833.81;5036887;28;45629;-65
2022/01/08 04:42:15;;;;;;;;;8.75;8.00;;;;;4.15;68.08;100837.53;5036145;28;65187;-64
2022/01/08 04:44:41;;;;;;;;;6.75;3.50;;;;;4.16;68.06;100849.59;5034369;28;71339;-66
2022/01/08 04:47:06;;;;;;;;;8.50;6.75;;;;;4.14;68.37;100841.88;5036191;28;59362;-66
2022/01/08 04:49:31;;;;;;;;;10.75;10.25;;;;;4.13;68.49;100837.59;5034831;28;68123;-65
2022/01/08 04:51:57;;;;;;;;;17.75;12.25;;;;;4.12;68.49;100829.88;5035725;28;66356;-64
2022/01/08 04:54:22;;;;;;;;;17.00;10.25;;;;;4.12;68.49;100828.09;5035938;28;56155;-64
2022/01/08 04:56:48;;;;;;;;;8.50;8.00;;;;;4.10;68.63;100835.16;5035383;28;66776;-64
2022/01/08 04:59:13;;;;;;;;;8.00;6.00;;;;;4.10;68.57;100829.97;5035928;28;63351;-66
2022/01/08 05:01:38;;;;;;;;;8.00;5.75;;;;;4.11;68.88;100846.41;5036413;28;45492;-66
2022/01/08 05:04:04;;;;;;;;;7.00;6.00;;;;;4.11;68.61;100847.25;5035738;28;63163;-64
2022/01/08 05:06:30;;;;;;;;;7.00;7.00;;;;;4.13;68.63;100861.00;5035485;28;45395;-64
2022/01/08 05:08:55;;;;;;;;;7.50;5.00;;;;;4.12;68.65;100863.69;5035500;28;45366;-64
2022/01/08 05:11:21;;;;;;;;;6.50;4.50;;;;;4.11;68.78;100862.84;5035733;28;69052;-62
2022/01/08 05:13:46;;;;;;;;;8.00;7.00;;;;;4.13;68.75;100865.38;5036524;28;45398;-62
2022/01/08 05:16:12;;;;;;;;;7.25;3.50;;;;;4.14;68.72;100859.25;5036738;28;45320;-65
2022/01/08 05:18:37;;;;;;;;;6.25;6.00;;;;;4.14;68.94;100859.25;5036683;28;45572;-64
2022/01/08 05:21:16;;;;;;;;;7.00;7.00;;;;;4.15;69.31;100861.75;5035224;28;46483;-66
2022/01/08 05:23:41;;;;;;;;;9.00;7.00;;;;;4.19;68.79;100865.03;5035031;28;45267;-64
2022/01/08 05:26:07;;;;;;;;;8.00;7.00;;;;;4.17;68.88;100859.06;5036493;28;45347;-63
2022/01/08 05:28:32;;;;;;;;;7.75;3.00;;;;;4.15;68.97;100859.16;5034880;28;48690;-64
2022/01/08 05:30:58;;;;;;;;;7.50;5.50;;;;;4.16;68.92;100855.63;5036065;28;46157;-63
2022/01/08 05:33:23;;;;;;;;;6.50;5.00;;;;;4.17;69.04;100861.69;5050886;28;69905;-64
2022/01/08 05:35:48;;;;;;;;;6.25;6.25;;;;;4.20;69.04;100874.50;5036115;28;45279;-62
2022/01/08 05:38:14;;;;;;;;;8.75;7.00;;;;;4.19;69.05;100864.19;5035233;28;64564;-67
2022/01/08 05:40:39;;;;;;;;;7.50;6.25;;;;;4.17;69.10;100866.88;5034708;28;45930;-63
2022/01/08 05:43:05;;;;;;;;;4.50;4.00;;;;;4.16;69.48;100854.78;5035912;28;45367;-67
2022/01/08 05:45:30;;;;;;;;;6.75;4.00;;;;;4.19;69.56;100853.78;5035335;28;60579;-64
2022/01/08 05:47:55;;;;;;;;;6.75;5.50;;;;;4.22;69.77;100841.44;5034530;28;49366;-64
2022/01/08 05:50:21;;;;;;;;;6.00;3.75;;;;;4.26;69.72;100834.28;5034133;28;58192;-65
2022/01/08 05:52:48;;;;;;;;;6.50;5.50;;;;;4.28;70.07;100843.69;5050587;28;65274;-66
2022/01/08 05:55:14;;;;;;;;;6.00;6.00;;;;;4.29;70.03;100837.53;5035821;28;45709;-65
2022/01/08 05:57:39;;;;;;;;;7.00;6.50;;;;;4.31;69.75;100838.28;5034772;28;45422;-64
2022/01/08 06:00:07;;;;;;;;;9.50;5.50;;;;;4.32;69.56;100841.75;5035317;28;56377;-64
2022/01/08 06:02:32;;;;;;;;;9.00;9.00;;;;;4.31;69.53;100842.69;5034560;28;45368;-67
2022/01/08 06:04:57;;;;;;;;;10.25;7.50;;;;;4.32;69.55;100833.94;5034548;28;45281;-63
2022/01/08 06:07:23;;;;;;;;;7.75;6.75;;;;;4.31;69.62;100833.09;5051461;28;45578;-64
2022/01/08 06:09:48;;;;;;;;;13.00;8.00;;;;;4.30;69.41;100833.19;5036477;28;70505;-65
2022/01/08 06:12:14;;;;;;;;;10.25;8.25;;;;;4.30;69.50;100835.78;5039245;28;45308;-64
2022/01/08 06:14:39;;;;;;;;;9.00;7.00;;;;;4.29;69.35;100840.16;5054733;28;47164;-64
2022/01/08 06:17:04;;;;;;;;;11.00;8.50;;;;;4.30;69.50;100844.44;5038266;28;67930;-65
2022/01/08 06:19:30;;;;;;;;;8.00;7.75;;;;;4.33;69.46;100848.63;5037751;28;45342;-68
2022/01/08 06:21:55;;;;;;;;;9.00;7.00;;;;;4.36;69.47;100847.59;5038950;28;45326;-64
2022/01/08 06:24:20;;;;;;;;;9.00;7.50;;;;;4.37;69.59;100849.28;5038056;28;68565;-65
2022/01/08 06:26:46;;;;;;;;;10.25;9.00;;;;;4.37;69.46;100836.28;5038966;28;45350;-65
2022/01/08 06:29:11;;;;;;;;;39.25;29.75;;;;;4.37;69.68;100824.13;5053129;28;73052;-64
2022/01/08 06:31:37;;;;;;;;;10.00;10.00;;;;;4.37;69.63;100821.53;5038675;28;45346;-64
2022/01/08 06:34:03;;;;;;;;;8.25;8.00;;;;;4.36;69.84;100822.44;5036664;28;65931;-63
2022/01/08 06:36:28;;;;;;;;;10.50;9.00;;;;;4.35;69.84;100802.56;5038808;28;45629;-65
2022/01/08 06:38:54;;;;;;;;;8.25;7.75;;;;;4.38;69.94;100791.13;5038563;28;47437;-64
2022/01/08 06:41:19;;;;;;;;;12.00;8.25;;;;;4.39;69.97;100801.44;5037442;28;67992;-65
2022/01/08 06:43:45;;;;;;;;;8.00;7.50;;;;;4.41;70.12;100801.34;5037071;28;66321;-63
2022/01/08 06:46:11;;;;;;;;;8.25;7.00;;;;;4.44;69.94;100802.03;5036689;28;45634;-64
2022/01/08 06:48:36;;;;;;;;;9.50;8.75;;;;;4.45;70.22;100808.06;5036850;28;48041;-65
2022/01/08 06:51:02;;;;;;;;;17.75;12.00;;;;;4.48;70.12;100807.06;5038463;28;45514;-66
2022/01/08 06:53:27;;;;;;;;;9.50;8.00;;;;;4.49;69.90;100799.13;5037280;28;45353;-64
2022/01/08 06:55:53;;;;;;;;;13.00;9.00;;;;;4.51;69.86;100802.50;5036099;28;67028;-63
2022/01/08 06:58:20;;;;;;;;;11.25;9.25;;;;;4.49;69.98;100801.75;5037361;28;72896;-63
2022/01/08 07:00:46;;;;;;;;;9.75;9.00;;;;;4.48;70.05;100805.28;5038510;28;45801;-66
2022/01/08 07:03:11;;;;;;;;;13.50;12.75;;;;;4.49;70.34;100806.94;5053939;28;45253;-62
2022/01/08 07:05:37;;;;;;;;;10.00;9.00;;;;;4.51;70.25;100807.69;5052777;28;69168;-66
2022/01/08 07:08:03;;;;;;;;;10.50;7.50;;;;;4.54;70.71;100799.72;5037893;28;51645;-66
2022/01/08 07:10:28;;;;;;;;;13.75;7.00;;;;;4.58;70.60;100798.59;5036853;28;45262;-64
2022/01/08 07:12:53;;;;;;;;;13.00;12.75;;;;;4.64;70.80;100789.59;5037781;28;50703;-65
2022/01/08 07:15:19;;;;;;;;;6.50;5.75;;;;;4.70;70.77;100801.41;5037394;28;63565;-64
2022/01/08 07:17:44;;;;;;;;;7.00;4.75;;;;;4.76;70.91;100801.06;5035778;28;68287;-64
2022/01/08 07:20:10;;;;;;;;;4.25;3.00;;;;;4.80;70.82;100799.91;5036337;28;45394;-65
2022/01/08 07:22:35;;;;;;;;;2.25;2.00;;;;;4.85;71.09;100799.66;5038021;28;45533;-63
2022/01/08 07:25:03;;;;;;;;;2.75;2.50;;;;;4.91;70.90;100794.06;5037969;28;45377;-64
2022/01/08 07:27:30;;;;;;;;;3.75;3.75;;;;;4.96;71.04;100784.22;5037789;28;45612;-65
2022/01/08 07:29:55;;;;;;;;;4.25;3.00;;;;;5.01;70.86;100778.72;5037948;28;45717;-62
2022/01/08 07:32:20;;;;;;;;;4.50;3.00;;;;;5.05;71.07;100767.19;5036310;28;52356;-66
2022/01/08 07:34:46;;;;;;;;;6.75;4.25;;;;;5.10;71.03;100762.53;5035967;28;63580;-65
2022/01/08 07:37:11;;;;;;;;;6.25;4.00;;;;;5.13;71.12;100754.53;5037633;28;45380;-64
2022/01/08 07:39:37;;;;;;;;;3.00;2.50;;;;;5.16;71.06;100759.56;5037770;28;45343;-64
2022/01/08 07:42:03;;;;;;;;;8.50;4.50;;;;;5.20;70.99;100758.44;5037912;28;45241;-66
2022/01/08 07:44:28;;;;;;;;;5.50;4.50;;;;;5.21;70.95;100754.03;5037209;28;45178;-67
2022/01/08 07:46:53;;;;;;;;;4.00;4.00;;;;;5.24;70.89;100753.03;5037557;28;45312;-66
2022/01/08 07:49:19;;;;;;;;;7.25;5.50;;;;;5.28;70.84;100738.88;5037788;28;45293;-64
2022/01/08 07:51:44;;;;;;;;;8.25;6.00;;;;;5.28;71.09;100744.91;5052585;28;59564;-66
2022/01/08 07:54:09;;;;;;;;;6.50;5.25;;;;;5.31;70.84;100744.72;5037646;28;45386;-63
2022/01/08 07:56:36;;;;;;;;;4.25;4.25;;;;;5.33;71.03;100748.06;5052130;28;63479;-65
2022/01/08 07:59:01;;;;;;;;;8.00;5.00;;;;;5.36;71.28;100747.03;5036755;28;45997;-65
2022/01/08 08:01:27;;;;;;;;;7.75;6.75;;;;;5.39;70.88;100757.25;5036373;28;45436;-65
2022/01/08 08:03:52;;;;;;;;;10.00;8.00;;;;;5.42;71.13;100754.44;5036530;28;64773;-62
2022/01/08 08:06:18;;;;;;;;;5.25;5.25;;;;;5.45;71.04;100746.44;5037230;28;46330;-64
2022/01/08 08:08:44;;;;;;;;;11.25;7.00;;;;;5.48;71.03;100738.44;5036463;28;64292;-65
2022/01/08 08:11:09;;;;;;;;;5.25;5.00;;;;;5.52;71.09;100733.03;5037477;28;45421;-63
2022/01/08 08:13:35;;;;;;;;;7.00;4.50;;;;;5.55;71.25;100730.22;5052958;28;45263;-62
2022/01/08 08:16:00;;;;;;;;;10.00;7.75;;;;;5.60;71.20;100728.16;5036237;28;67911;-65
2022/01/08 08:18:26;;;;;;;;;9.75;8.50;;;;;5.64;71.35;100727.84;5036206;28;67960;-64
2022/01/08 08:20:52;;;;;;;;;11.50;9.75;;;;;5.67;71.22;100713.78;5037264;28;45244;-64
2022/01/08 08:23:17;;;;;;;;;10.75;8.25;;;;;5.70;71.29;100716.22;5036303;28;62500;-66
2022/01/08 08:25:42;;;;;;;;;12.50;10.00;;;;;5.73;71.21;100702.97;5036737;28;46596;-68
2022/01/08 08:28:08;;;;;;;;;17.00;10.25;;;;;5.76;71.10;100692.34;5035084;28;61977;-66
2022/01/08 08:30:34;;;;;;;;;16.00;15.25;;;;;5.78;71.01;100690.47;5037078;28;45285;-65
2022/01/08 08:33:00;;;;;;;;;25.25;19.50;;;;;5.82;71.25;100690.28;5034899;28;45302;-64
2022/01/08 08:35:26;;;;;;;;;23.00;15.75;;;;;5.86;71.11;100683.88;5036653;28;46559;-65
2022/01/08 08:37:51;;;;;;;;;12.75;12.75;;;;;5.89;71.23;100681.06;5051447;28;66349;-67
2022/01/08 08:40:16;;;;;;;;;9.00;8.50;;;;;5.91;70.95;100684.41;5036010;28;64307;-65
2022/01/08 08:42:42;;;;;;;;;10.00;10.00;;;;;5.94;71.33;100684.22;5035617;28;45524;-63
2022/01/08 08:45:08;;;;;;;;;10.75;7.75;;;;;5.97;71.48;100678.78;5034682;28;66237;-68
2022/01/08 08:47:33;;;;;;;;;0.00;0.00;;;;;6.00;71.51;100678.63;5052168;28;45422;-64
2022/01/08 08:49:59;;;;;;;;;11.25;7.00;;;;;6.02;71.69;100676.75;5036175;28;59176;-64
2022/01/08 08:52:25;;;;;;;;;6.50;5.00;;;;;6.07;71.81;100668.63;5036343;28;45824;-66
2022/01/08 08:54:51;;;;;;;;;7.25;3.00;;;;;6.11;72.17;100658.81;5051858;28;45364;-64
2022/01/08 08:57:16;;;;;;;;;4.50;4.50;;;;;6.14;71.95;100648.16;5035518;28;45327;-66
2022/01/08 08:59:41;;;;;;;;;8.25;4.50;;;;;6.17;72.19;100648.78;5034975;28;62733;-65
2022/01/08 09:02:07;;;;;;;;;8.25;5.50;;;;;6.22;72.37;100645.88;5035952;28;63315;-65
2022/01/08 09:04:32;;;;;;;;;4.75;4.00;;;;;6.24;72.63;100641.38;5035673;28;68214;-64
2022/01/08 09:06:58;;;;;;;;;7.50;5.75;;;;;6.28;72.72;100642.84;5036680;28;45292;-66
2022/01/08 09:09:24;;;;;;;;;8.50;4.25;;;;;6.31;72.82;100645.25;5036553;28;45231;-64
2022/01/08 09:11:49;;;;;;;;;10.25;8.75;;;;;6.34;72.81;100645.03;5036688;28;45439;-64
2022/01/08 09:14:15;;;;;;;;;12.00;9.00;;;;;6.36;72.97;100644.91;5035662;28;64701;-63
2022/01/08 09:16:45;;;;;;;;;13.00;8.75;;;;;6.38;73.08;100651.69;5034803;28;45440;-65
2022/01/08 09:19:10;;;;;;;;;14.00;12.00;;;;;6.41;73.30;100644.59;5018068;28;45443;-63
2022/01/08 09:21:36;;;;;;;;;10.00;9.50;;;;;6.43;73.37;100640.09;5033708;28;68271;-65
2022/01/08 09:24:01;;;;;;;;;17.50;11.50;;;;;6.46;73.37;100629.44;5035153;28;67263;-68
2022/01/08 09:26:26;;;;;;;;;22.00;18.50;;;;;6.48;73.50;100625.81;5035419;28;71764;-68
2022/01/08 09:28:52;;;;;;;;;15.75;11.25;;;;;6.47;73.50;100621.53;5033650;28;57796;-65
2022/01/08 09:31:18;;;;;;;;;12.75;11.75;;;;;6.48;73.82;100612.75;5034079;28;64536;-67
2022/01/08 09:33:44;;;;;;;;;13.00;8.75;;;;;6.52;73.93;100619.44;5050216;28;45478;-64
2022/01/08 09:36:09;;;;;;;;;13.75;13.75;;;;;6.55;73.92;100610.53;5033542;28;58581;-66
2022/01/08 09:38:34;;;;;;;;;14.75;14.75;;;;;6.57;73.95;100597.38;5050347;28;60672;-62
2022/01/08 09:41:00;;;;;;;;;16.25;11.50;;;;;6.60;73.90;100599.78;5035672;28;45308;-67
2022/01/08 09:43:25;;;;;;;;;16.25;15.50;;;;;6.62;74.06;100597.91;5034569;28;74214;-65
2022/01/08 09:45:51;;;;;;;;;17.25;12.50;;;;;6.61;74.06;100599.66;5054238;28;58238;-63
2022/01/08 09:48:16;;;;;;;;;20.25;14.75;;;;;6.65;74.26;100595.91;5038652;28;61468;-64
2022/01/08 09:50:42;;;;;;;;;19.75;12.25;;;;;6.68;74.09;100587.00;5039624;28;45377;-67
2022/01/08 09:53:07;;;;;;;;;20.00;15.00;;;;;6.71;74.09;100578.94;5054911;28;45620;-65
2022/01/08 09:55:33;;;;;;;;;17.50;14.50;;;;;6.74;74.35;100583.13;5037150;28;70098;-65
2022/01/08 09:57:59;;;;;;;;;16.00;13.25;;;;;6.76;74.36;100578.63;5038735;28;64618;-63
2022/01/08 10:00:24;;;;;;;;;19.50;16.75;;;;;6.78;74.28;100574.94;5038223;28;45530;-65
2022/01/08 10:02:50;;;;;;;;;16.75;13.50;;;;;6.81;74.48;100571.31;5037825;28;45579;-66
2022/01/08 10:05:16;;;;;;;;;24.25;20.00;;;;;6.83;74.62;100577.25;5054538;28;45483;-64
2022/01/08 10:07:41;;;;;;;;;15.75;13.25;;;;;6.87;74.59;100570.88;5038149;28;45295;-66
2022/01/08 10:10:13;;;;;;;;;18.25;13.50;;;;;6.92;74.85;100557.47;5037989;28;45479;-65
2022/01/08 10:12:40;;;;;;;;;24.50;21.75;;;;;6.95;74.79;100555.44;5038776;28;46314;-65
2022/01/08 10:17:51;;;;;;;;;17.75;15.25;;;;;7.05;74.66;100528.66;5037852;28;45406;-64
2022/01/08 10:20:29;;;;;;;;;15.00;10.00;;;;;7.08;74.79;100531.03;5054337;28;45569;-66
2022/01/08 10:23:12;;;;;;;;;13.00;10.25;;;;;7.10;74.96;100511.69;5053894;28;46236;-65
2022/01/08 10:25:40;;;;;;;;;19.25;13.50;;;;;7.15;74.95;100508.72;5053030;28;45754;-64
2022/01/08 10:28:05;;;;;;;;;17.00;12.75;;;;;7.19;75.06;100514.56;5038927;28;45231;-64
2022/01/08 10:30:31;;;;;;;;;15.00;11.25;;;;;7.22;75.06;100494.25;5037851;28;66033;-68
2022/01/08 10:32:57;;;;;;;;;10.25;10.00;;;;;7.27;74.87;100491.28;5038198;28;56697;-64
2022/01/08 10:35:46;;;;;;;;;14.00;12.25;;;;;7.32;75.06;100488.34;5038502;28;45418;-67
2022/01/08 10:38:11;;;;;;;;;17.50;12.75;;;;;7.35;75.44;100493.34;5038652;28;45367;-63
2022/01/08 10:40:37;;;;;;;;;16.75;12.25;;;;;7.38;75.16;100493.13;5053211;28;67557;-64
2022/01/08 10:43:04;;;;;;;;;17.75;16.75;;;;;7.41;75.10;100488.47;5053049;28;67978;-64
2022/01/08 10:45:33;;;;;;;;;19.00;13.00;;;;;7.45;75.27;100478.59;5037005;28;45730;-64
2022/01/08 10:48:05;;;;;;;;;5.75;3.50;;;;;7.51;75.16;100477.31;5036560;28;63723;-66
2022/01/08 10:50:30;;;;;;;;;21.50;14.50;;;;;7.53;75.19;100464.97;5038418;28;45474;-64
2022/01/08 10:52:57;;;;;;;;;16.00;12.50;;;;;7.56;75.20;100454.28;5036126;28;66077;-64
2022/01/08 10:55:30;;;;;;;;;18.25;11.00;;;;;7.60;75.30;100447.84;5037438;28;45450;-65
2022/01/08 10:57:55;;;;;;;;;19.00;14.50;;;;;7.62;75.16;100443.34;5036947;28;45317;-65
2022/01/08 11:00:21;;;;;;;;;18.25;13.50;;;;;7.65;75.47;100427.41;5054476;28;67749;-65
2022/01/08 11:02:46;;;;;;;;;15.00;14.50;;;;;7.67;75.36;100433.34;5050704;28;46381;-67
2022/01/08 11:05:12;;;;;;;;;17.75;13.00;;;;;7.70;75.37;100430.47;5046869;28;57830;-65
2022/01/08 11:07:39;;;;;;;;;16.00;13.25;;;;;7.72;75.38;100422.53;5050296;28;45450;-66
2022/01/08 11:10:15;;;;;;;;;14.75;9.75;;;;;7.75;75.53;100418.81;5025044;28;45728;-66
2022/01/08 11:12:42;;;;;;;;;13.00;10.75;;;;;7.79;75.65;100415.00;5065370;28;46122;-64
2022/01/08 11:17:44;;;;;;;;;15.25;12.75;;;;;7.84;75.69;100400.63;5054998;28;45422;-63
2022/01/08 11:20:27;;;;;;;;;16.25;12.00;;;;;7.87;75.53;100389.09;5065447;28;45473;-63
2022/01/08 11:22:57;;;;;;;;;12.25;9.75;;;;;7.90;75.91;100386.22;5063377;28;52472;-64
2022/01/08 11:25:32;;;;;;;;;21.50;12.75;;;;;7.94;75.74;100378.97;5064129;28;45354;-65
2022/01/08 11:28:11;;;;;;;;;14.00;11.00;;;;;7.98;75.77;100375.13;5049474;28;45423;-63
2022/01/08 11:30:52;;;;;;;;;11.50;10.50;;;;;8.02;75.64;100363.47;5048452;28;45435;-64
2022/01/08 11:33:23;;;;;;;;;8.25;8.00;;;;;8.05;75.67;100355.38;5036619;28;45493;-63
2022/01/08 11:35:49;;;;;;;;;15.25;11.50;;;;;8.08;75.81;100351.69;5023413;28;45280;-65
2022/01/08 11:38:18;;;;;;;;;13.50;9.50;;;;;8.10;75.78;100347.16;5043712;28;46715;-67
2022/01/08 11:40:44;;;;;;;;;12.00;10.00;;;;;8.14;75.59;100338.13;5044232;28;45573;-62
2022/01/08 11:43:12;;;;;;;;;13.00;9.00;;;;;8.16;75.69;100331.78;5051281;28;46486;-63
2022/01/08 11:45:38;;;;;;;;;13.75;8.75;;;;;8.20;75.87;100334.16;5044182;28;45914;-65
2022/01/08 11:48:06;;;;;;;;;20.25;18.00;;;;;8.24;75.34;100328.53;5049861;28;45322;-64
2022/01/08 11:50:31;;;;;;;;;12.25;7.50;;;;;8.26;75.60;100320.56;5043026;28;45910;-66
2022/01/08 11:53:15;;;;;;;;;10.25;6.00;;;;;8.27;75.57;100296.88;5044453;28;45523;-63